createdAt,value
2022-08-12T00:00:17.579Z,40.40
2022-08-12T00:03:03.204Z,40.90
2022-08-12T00:06:03.865Z,41.20
2022-08-12T00:08:53.735Z,41.60
2022-08-12T00:11:39.743Z,42.00
2022-08-12T00:14:25.127Z,42.40
2022-08-12T00:17:11.489Z,42.40
2022-08-12T00:19:56.921Z,42.10
2022-08-12T00:22:43.132Z,42.10
2022-08-12T00:26:05.507Z,42.00
2022-08-12T00:28:36.297Z,42.20
2022-08-12T00:31:21.773Z,42.60
2022-08-12T00:34:07.106Z,43.00
2022-08-12T00:36:52.769Z,43.50
2022-08-12T00:39:39.404Z,44.00
2022-08-12T00:42:11.787Z,44.50
2022-08-12T00:44:45.528Z,45.00
2022-08-12T00:47:25.089Z,45.40
2022-08-12T00:49:54.852Z,45.80
2022-08-12T00:52:24.203Z,46.30
2022-08-12T00:54:54.491Z,46.90
2022-08-12T00:57:25.452Z,47.20
2022-08-12T00:59:56.683Z,47.80
2022-08-12T01:02:27.680Z,48.40
2022-08-12T01:05:16.275Z,49.00
2022-08-12T01:08:03.395Z,49.80
2022-08-12T01:10:50.049Z,50.70
2022-08-12T01:13:20.592Z,51.60
2022-08-12T01:15:51.903Z,52.40
2022-08-12T01:18:22.785Z,53.20
2022-08-12T01:21:01.143Z,53.90
2022-08-12T01:23:46.022Z,54.90
2022-08-12T01:26:18.941Z,55.40
2022-08-12T01:28:48.696Z,56.20
2022-08-12T01:31:20.819Z,57.20
2022-08-12T01:33:59.767Z,58.40
2022-08-12T01:36:29.189Z,59.90
2022-08-12T01:39:00.036Z,61.10
2022-08-12T01:41:31.915Z,61.80
2022-08-12T01:44:02.322Z,62.10
2022-08-12T01:46:45.022Z,62.60
2022-08-12T01:49:43.871Z,63.30
2022-08-12T01:52:27.245Z,64.20
2022-08-12T01:54:55.547Z,65.50
2022-08-12T01:57:57.191Z,66.30
2022-08-12T02:00:18.966Z,67.20
2022-08-12T02:02:53.223Z,68.90
2022-08-12T02:05:48.900Z,70.70
2022-08-12T02:08:45.544Z,72.50
2022-08-12T02:11:19.839Z,74.20
2022-08-12T02:14:00.164Z,75.80
2022-08-12T02:16:47.607Z,77.30
2022-08-12T02:19:30.231Z,78.50
2022-08-12T02:22:18.838Z,79.30
2022-08-12T02:24:47.864Z,80.00
2022-08-12T02:27:18.471Z,80.90
2022-08-12T02:29:48.183Z,81.60
2022-08-12T02:32:16.336Z,82.10
2022-08-12T02:34:46.066Z,82.50
2022-08-12T02:37:16.394Z,83.20
2022-08-12T02:39:49.634Z,83.80
2022-08-12T02:42:22.154Z,84.40
2022-08-12T02:44:54.144Z,84.80
2022-08-12T02:47:58.585Z,85.30
2022-08-12T02:50:15.457Z,85.80
2022-08-12T02:52:44.075Z,86.70
2022-08-12T02:55:28.713Z,87.20
2022-08-12T02:58:09.231Z,86.20
2022-08-12T03:00:43.248Z,85.70
2022-08-12T03:03:13.681Z,84.00
2022-08-12T03:05:48.590Z,82.60
2022-08-12T03:08:32.751Z,81.70
2022-08-12T03:11:11.696Z,82.30
2022-08-12T03:13:46.548Z,82.50
2022-08-12T03:16:15.832Z,82.70
2022-08-12T03:18:46.087Z,82.90
2022-08-12T03:21:17.538Z,83.40
2022-08-12T03:24:09.198Z,83.50
2022-08-12T03:26:38.264Z,84.20
2022-08-12T03:29:07.902Z,84.90
2022-08-12T03:31:37.241Z,85.80
2022-08-12T03:34:07.567Z,86.70
2022-08-12T03:36:37.886Z,87.60
2022-08-12T03:39:36.057Z,88.30
2022-08-12T03:42:15.213Z,88.60
2022-08-12T03:45:15.109Z,89.10
2022-08-12T03:48:10.646Z,88.80
2022-08-12T03:50:59.727Z,89.70
2022-08-12T03:53:48.349Z,90.30
2022-08-12T03:56:34.363Z,90.70
2022-08-12T03:59:22.812Z,91.00
2022-08-12T04:01:57.534Z,91.30
2022-08-12T04:04:29.458Z,91.60
2022-08-12T04:06:58.845Z,92.10
2022-08-12T04:09:27.367Z,91.80
2022-08-12T04:12:12.745Z,91.80
2022-08-12T04:14:40.812Z,91.80
2022-08-12T04:17:09.492Z,91.90
2022-08-12T04:19:40.644Z,92.00
2022-08-12T04:22:09.871Z,92.10
2022-08-12T04:24:38.032Z,92.10
2022-08-12T04:27:10.298Z,92.10
2022-08-12T04:30:16.476Z,92.00
2022-08-12T04:32:27.934Z,91.70
2022-08-12T04:34:57.334Z,91.60
2022-08-12T04:37:25.331Z,91.40
2022-08-12T04:39:54.003Z,91.30
2022-08-12T04:42:22.202Z,91.10
2022-08-12T04:44:50.239Z,91.00
2022-08-12T04:47:18.522Z,91.30
2022-08-12T04:49:49.193Z,91.50
2022-08-12T04:52:21.706Z,91.50
2022-08-12T04:54:49.840Z,91.30
2022-08-12T04:57:17.725Z,91.60
2022-08-12T04:59:48.503Z,91.90
2022-08-12T05:02:21.241Z,91.70
2022-08-12T05:04:51.522Z,91.20
2022-08-12T05:07:21.033Z,90.60
2022-08-12T05:09:59.226Z,90.30
2022-08-12T05:12:35.770Z,90.00
2022-08-12T05:15:19.258Z,88.60
2022-08-12T05:17:52.854Z,88.40
2022-08-12T05:20:21.943Z,86.90
2022-08-12T05:22:53.119Z,87.30
2022-08-12T05:25:25.155Z,85.80
2022-08-12T05:27:55.311Z,85.20
2022-08-12T05:30:27.378Z,84.60
2022-08-12T05:33:00.234Z,84.00
2022-08-12T05:35:28.581Z,83.70
2022-08-12T05:38:11.823Z,83.20
2022-08-12T05:40:39.773Z,82.80
2022-08-12T05:43:08.138Z,82.50
2022-08-12T05:45:38.248Z,82.00
2022-08-12T05:48:08.492Z,81.60
2022-08-12T05:50:36.624Z,80.80
2022-08-12T05:53:07.035Z,80.70
2022-08-12T05:55:35.083Z,79.20
2022-08-12T05:58:03.201Z,78.60
2022-08-12T06:00:31.902Z,77.90
2022-08-12T06:03:01.840Z,76.70
2022-08-12T06:05:31.022Z,76.00
2022-08-12T06:08:03.049Z,75.10
2022-08-12T06:10:33.433Z,74.20
2022-08-12T06:13:02.493Z,73.40
2022-08-12T06:15:31.615Z,73.00
2022-08-12T06:18:14.110Z,72.30
2022-08-12T06:20:44.717Z,71.30
2022-08-12T06:23:15.258Z,71.00
2022-08-12T06:25:46.435Z,70.60
2022-08-12T06:28:17.704Z,70.80
2022-08-12T06:31:02.688Z,69.70
2022-08-12T06:33:55.315Z,69.30
2022-08-12T06:36:29.454Z,68.30
2022-08-12T06:38:58.271Z,67.70
2022-08-12T06:42:04.987Z,67.50
2022-08-12T06:44:32.988Z,66.60
2022-08-12T06:47:01.096Z,65.50
2022-08-12T06:49:36.326Z,65.20
2022-08-12T06:52:07.392Z,64.90
2022-08-12T06:54:35.438Z,64.60
2022-08-12T06:58:05.773Z,63.80
2022-08-12T06:59:52.952Z,63.40
2022-08-12T07:02:22.695Z,62.60
2022-08-12T07:04:52.611Z,62.20
2022-08-12T07:07:21.083Z,61.80
2022-08-12T07:10:04.131Z,60.80
2022-08-12T07:12:36.851Z,59.80
2022-08-12T07:15:05.757Z,59.70
2022-08-12T07:17:38.675Z,59.40
2022-08-12T07:20:29.866Z,59.20
2022-08-12T07:22:59.736Z,58.80
2022-08-12T07:25:40.691Z,58.10
2022-08-12T07:28:16.860Z,57.80
2022-08-12T07:30:46.743Z,57.20
2022-08-12T07:33:16.738Z,56.60
2022-08-12T07:35:47.765Z,56.40
2022-08-12T07:38:29.019Z,56.10
2022-08-12T07:41:03.058Z,55.80
2022-08-12T07:43:36.436Z,55.30
2022-08-12T07:46:09.026Z,54.60
2022-08-12T07:48:39.465Z,53.80
2022-08-12T07:51:08.437Z,53.00
2022-08-12T07:53:54.831Z,52.30
2022-08-12T07:56:27.413Z,51.60
2022-08-12T07:58:59.269Z,50.60
2022-08-12T08:01:28.404Z,49.70
2022-08-12T08:04:18.714Z,48.60
2022-08-12T08:06:48.015Z,48.00
2022-08-12T08:09:19.252Z,47.30
2022-08-12T08:12:09.861Z,46.30
2022-08-12T08:14:51.943Z,45.40
2022-08-12T08:17:19.927Z,43.50
2022-08-12T08:20:03.741Z,43.10
2022-08-12T08:22:41.907Z,42.30
2022-08-12T08:25:34.402Z,41.70
2022-08-12T08:28:01.110Z,41.20
2022-08-12T08:30:32.333Z,40.80
2022-08-12T08:33:00.562Z,39.20
2022-08-12T08:35:46.254Z,37.20
2022-08-12T08:38:17.633Z,36.50
2022-08-12T08:42:19.028Z,35.00
2022-08-12T08:44:06.308Z,34.50
2022-08-12T08:46:37.899Z,34.20
2022-08-12T08:49:06.574Z,33.60
2022-08-12T08:51:35.242Z,33.60
2022-08-12T08:54:03.365Z,32.60
2022-08-12T08:56:31.399Z,32.40
2022-08-12T08:58:59.802Z,32.40
2022-08-12T09:01:37.287Z,31.90
2022-08-12T09:05:08.166Z,31.60
2022-08-12T09:07:00.196Z,31.40
2022-08-12T09:10:03.428Z,30.50
2022-08-12T09:12:55.034Z,30.00
2022-08-12T09:15:35.301Z,29.20
2022-08-12T09:18:09.066Z,28.00
2022-08-12T09:20:39.844Z,27.20
2022-08-12T09:23:58.696Z,25.60
2022-08-12T09:26:04.375Z,24.30
2022-08-12T09:28:37.309Z,21.60
2022-08-12T09:32:03.866Z,20.40
2022-08-12T09:34:27.410Z,18.30
2022-08-12T09:36:57.640Z,14.80
2022-08-12T09:40:02.544Z,12.00
2022-08-12T09:42:42.739Z,9.40
2022-08-12T09:45:24.070Z,8.60
2022-08-12T09:48:20.161Z,7.10
2022-08-12T09:50:55.001Z,6.00
2022-08-12T09:53:29.210Z,4.90
2022-08-12T09:56:40.158Z,3.80
2022-08-12T09:58:59.790Z,3.00
2022-08-12T10:01:34.676Z,3.50
2022-08-12T10:04:19.691Z,3.50
2022-08-12T10:06:55.512Z,3.10
2022-08-12T10:09:28.792Z,3.50
2022-08-12T10:12:33.338Z,4.00
2022-08-12T10:15:01.779Z,4.00
2022-08-12T10:17:30.112Z,4.60
2022-08-12T10:19:59.787Z,4.60
2022-08-12T10:22:36.884Z,4.70
2022-08-12T10:26:18.449Z,4.70
2022-08-12T10:28:35.879Z,4.10
2022-08-12T10:31:06.566Z,2.90
2022-08-12T10:34:05.097Z,3.10
2022-08-12T10:36:36.120Z,2.80
2022-08-12T10:40:00.244Z,2.40
2022-08-12T10:42:18.337Z,2.20
2022-08-12T10:45:00.883Z,2.00
2022-08-12T10:48:07.133Z,1.70
2022-08-12T10:50:29.529Z,2.00
2022-08-12T10:53:08.978Z,2.20
2022-08-12T10:55:37.498Z,2.80
2022-08-12T10:58:15.211Z,2.80
2022-08-12T11:03:01.490Z,2.30
2022-08-12T11:04:23.368Z,2.60
2022-08-12T11:07:06.104Z,2.90
2022-08-12T11:09:55.926Z,2.90
2022-08-12T11:12:55.585Z,2.80
2022-08-12T11:14:59.276Z,2.60
2022-08-12T11:17:43.711Z,2.40
2022-08-12T11:20:16.281Z,2.60
2022-08-12T11:22:57.625Z,2.70
2022-08-12T11:25:56.446Z,3.00
2022-08-12T11:28:15.024Z,3.60
2022-08-12T11:30:46.060Z,4.20
2022-08-12T11:33:24.354Z,4.50
2022-08-12T11:36:16.099Z,5.00
2022-08-12T11:38:50.753Z,5.70
2022-08-12T11:41:28.099Z,5.90
2022-08-12T11:44:24.075Z,6.80
2022-08-12T11:46:51.464Z,7.90
2022-08-12T11:49:30.613Z,8.30
2022-08-12T11:52:01.940Z,8.00
2022-08-12T11:54:30.975Z,8.50
2022-08-12T11:57:00.506Z,8.60
2022-08-12T12:02:21.444Z,9.30
2022-08-12T12:04:52.159Z,9.60
2022-08-12T12:07:22.502Z,9.80
2022-08-12T12:09:53.386Z,10.20
2022-08-12T12:12:22.980Z,10.00
2022-08-12T12:14:54.650Z,10.40
2022-08-12T12:17:25.678Z,10.40
2022-08-12T12:19:54.018Z,10.30
2022-08-12T12:22:30.802Z,10.50
2022-08-12T12:24:59.124Z,10.60
2022-08-12T12:28:04.646Z,10.70
2022-08-12T12:30:34.624Z,10.80
2022-08-12T12:33:05.266Z,10.30
2022-08-12T12:36:19.904Z,10.20
2022-08-12T12:38:25.355Z,10.10
2022-08-12T12:40:53.568Z,9.60
2022-08-12T12:43:28.719Z,9.40
2022-08-12T12:46:10.711Z,10.20
2022-08-12T12:48:44.228Z,9.60
2022-08-12T12:51:48.248Z,9.60
2022-08-12T12:54:09.966Z,9.70
2022-08-12T12:56:42.290Z,9.50
2022-08-12T12:59:56.216Z,9.20
2022-08-12T13:02:08.237Z,9.30
2022-08-12T13:04:38.425Z,9.30
2022-08-12T13:07:08.061Z,9.90
2022-08-12T13:09:36.881Z,9.30
2022-08-12T13:12:08.789Z,9.10
2022-08-12T13:14:39.855Z,9.10
2022-08-12T13:17:09.560Z,9.20
2022-08-12T13:19:45.341Z,9.10
2022-08-12T13:22:18.448Z,9.60
2022-08-12T13:24:46.961Z,8.70
2022-08-12T13:27:22.824Z,8.60
2022-08-12T13:30:00.854Z,8.50
2022-08-12T13:32:31.890Z,8.40
2022-08-12T13:35:04.683Z,8.30
2022-08-12T13:37:55.073Z,8.60
2022-08-12T13:40:24.874Z,7.90
2022-08-12T13:42:57.727Z,7.90
2022-08-12T13:45:26.036Z,8.30
2022-08-12T13:47:56.308Z,7.70
2022-08-12T13:50:31.901Z,7.90
2022-08-12T13:53:01.305Z,7.90
2022-08-12T13:55:59.576Z,7.70
2022-08-12T13:58:30.658Z,7.80
2022-08-12T14:00:59.480Z,7.40
2022-08-12T14:03:28.224Z,7.50
2022-08-12T14:06:07.055Z,7.60
2022-08-12T14:08:35.243Z,7.70
2022-08-12T14:11:05.050Z,8.30
2022-08-12T14:14:04.633Z,7.60
2022-08-12T14:16:37.946Z,7.50
2022-08-12T14:19:22.510Z,7.60
2022-08-12T14:22:00.974Z,7.70
2022-08-12T14:24:35.567Z,7.60
2022-08-12T14:27:09.069Z,7.60
2022-08-12T14:30:04.824Z,7.50
2022-08-12T14:32:35.222Z,7.30
2022-08-12T14:35:08.951Z,7.20
2022-08-12T14:37:55.471Z,7.70
2022-08-12T14:40:27.723Z,7.20
2022-08-12T14:42:57.283Z,7.00
2022-08-12T14:45:44.368Z,7.30
2022-08-12T14:48:15.122Z,6.80
2022-08-12T14:51:09.448Z,6.50
2022-08-12T14:59:56.974Z,6.00
2022-08-12T15:02:20.899Z,6.30
2022-08-12T15:04:55.970Z,6.50
2022-08-12T15:07:33.474Z,6.60
2022-08-12T15:10:14.641Z,6.60
2022-08-12T15:12:53.485Z,6.60
2022-08-12T15:15:22.512Z,6.60
2022-08-12T15:17:59.171Z,6.70
2022-08-12T15:20:32.907Z,7.00
2022-08-12T15:23:17.882Z,7.10
2022-08-12T15:26:02.456Z,7.00
2022-08-12T15:28:33.437Z,7.00
2022-08-12T15:31:02.212Z,6.90
2022-08-12T15:33:45.042Z,6.90
2022-08-12T15:36:19.447Z,7.00
2022-08-12T15:39:03.139Z,7.00
2022-08-12T15:41:49.119Z,7.10
2022-08-12T15:44:42.196Z,7.00
2022-08-12T15:47:07.581Z,7.00
2022-08-12T15:49:54.292Z,7.30
2022-08-12T15:52:28.083Z,7.20
2022-08-12T15:54:58.760Z,7.50
2022-08-12T15:57:28.445Z,7.60
2022-08-12T16:00:07.517Z,7.40
2022-08-12T16:02:49.461Z,7.30
2022-08-12T16:06:19.395Z,7.30
2022-08-12T16:08:13.265Z,7.40
2022-08-12T16:10:45.689Z,7.50
2022-08-12T16:13:18.077Z,7.50
2022-08-12T16:16:02.531Z,7.90
2022-08-12T16:18:33.291Z,8.10
2022-08-12T16:21:02.031Z,8.20
2022-08-12T16:23:52.139Z,8.30
2022-08-12T16:26:27.624Z,8.30
2022-08-12T16:29:14.536Z,8.30
2022-08-12T16:31:44.136Z,8.40
2022-08-12T16:34:25.692Z,8.60
2022-08-12T16:37:07.399Z,8.70
2022-08-12T16:40:00.678Z,8.70
2022-08-12T16:42:27.855Z,8.80
2022-08-12T16:44:59.420Z,9.10
2022-08-12T16:47:28.066Z,9.20
2022-08-12T16:49:57.698Z,9.50
2022-08-12T16:52:25.750Z,9.60
2022-08-12T16:54:55.116Z,10.00
2022-08-12T16:57:35.694Z,9.90
2022-08-12T17:00:11.789Z,9.40
2022-08-12T17:02:41.235Z,9.40
2022-08-12T17:05:16.136Z,9.60
2022-08-12T17:07:52.042Z,9.90
2022-08-12T17:10:36.292Z,9.90
2022-08-12T17:13:09.957Z,10.10
2022-08-12T17:15:56.810Z,10.40
2022-08-12T17:18:43.219Z,10.20
2022-08-12T17:21:17.311Z,10.30
2022-08-12T17:23:53.431Z,10.20
2022-08-12T17:26:22.890Z,10.20
2022-08-12T17:28:59.096Z,10.20
2022-08-12T17:32:00.245Z,10.90
2022-08-12T17:34:33.401Z,10.60
2022-08-12T17:37:02.759Z,10.80
2022-08-12T17:40:10.782Z,11.20
2022-08-12T17:42:32.840Z,11.40
2022-08-12T17:45:16.930Z,11.50
2022-08-12T17:48:01.482Z,11.60
2022-08-12T17:50:33.298Z,11.70
2022-08-12T17:53:02.725Z,11.60
2022-08-12T17:55:44.792Z,11.70
2022-08-12T17:58:18.363Z,11.70
2022-08-12T18:00:50.769Z,11.90
2022-08-12T18:04:05.787Z,11.90
2022-08-12T18:06:14.523Z,12.00
2022-08-12T18:08:54.990Z,12.10
2022-08-12T18:12:06.374Z,12.30
2022-08-12T18:14:30.163Z,12.60
2022-08-12T18:17:01.050Z,12.70
2022-08-12T18:20:03.701Z,12.90
2022-08-12T18:22:22.266Z,12.90
2022-08-12T18:26:12.891Z,12.90
2022-08-12T18:28:16.059Z,13.00
2022-08-12T18:30:52.965Z,13.20
2022-08-12T18:33:24.955Z,13.20
2022-08-12T18:35:57.053Z,13.30
2022-08-12T18:38:26.246Z,13.40
2022-08-12T18:41:20.796Z,13.50
2022-08-12T18:44:00.304Z,13.60
2022-08-12T18:46:45.798Z,13.70
2022-08-12T18:49:20.654Z,13.80
2022-08-12T18:51:55.086Z,14.10
2022-08-12T18:54:32.383Z,14.20
2022-08-12T18:57:03.790Z,14.40
2022-08-12T19:00:01.924Z,14.50
2022-08-12T19:02:25.594Z,14.70
2022-08-12T19:04:54.226Z,14.90
2022-08-12T19:07:29.903Z,15.10
2022-08-12T19:10:14.799Z,15.20
2022-08-12T19:13:10.474Z,15.40
2022-08-12T19:15:42.998Z,15.50
2022-08-12T19:18:12.457Z,15.70
2022-08-12T19:20:41.758Z,16.00
2022-08-12T19:23:16.674Z,16.10
2022-08-12T19:25:59.749Z,16.30
2022-08-12T19:28:35.587Z,16.50
2022-08-12T19:31:57.241Z,16.80
2022-08-12T19:37:26.685Z,17.30
2022-08-12T19:40:09.686Z,17.60
2022-08-12T19:43:00.655Z,17.90
2022-08-12T19:45:43.854Z,18.20
2022-08-12T19:48:18.718Z,18.30
2022-08-12T19:50:50.339Z,18.40
2022-08-12T19:53:23.059Z,18.50
2022-08-12T19:55:55.152Z,18.50
2022-08-12T19:58:24.097Z,18.60
2022-08-12T20:00:54.855Z,18.70
2022-08-12T20:03:38.794Z,18.70
2022-08-12T20:06:15.813Z,18.80
2022-08-12T20:08:55.894Z,18.90
2022-08-12T20:12:11.083Z,19.10
2022-08-12T20:14:18.933Z,19.10
2022-08-12T20:16:52.959Z,19.30
2022-08-12T20:19:52.249Z,19.40
2022-08-12T20:22:24.292Z,19.60
2022-08-12T20:25:01.570Z,20.20
2022-08-12T20:28:04.140Z,19.80
2022-08-12T20:30:52.333Z,19.90
2022-08-12T20:33:19.176Z,19.90
2022-08-12T20:36:06.408Z,20.10
2022-08-12T20:38:42.130Z,20.20
2022-08-12T20:41:16.558Z,20.50
2022-08-12T20:43:50.320Z,20.50
2022-08-12T20:46:19.388Z,20.60
2022-08-12T20:48:54.901Z,20.70
2022-08-12T20:51:27.686Z,20.80
2022-08-12T20:53:59.285Z,20.90
2022-08-12T20:56:34.565Z,20.90
2022-08-12T20:59:06.672Z,20.90
2022-08-12T21:01:46.902Z,21.00
2022-08-12T21:04:35.270Z,21.00
2022-08-12T21:07:08.415Z,21.10
2022-08-12T21:09:40.924Z,21.10
2022-08-12T21:12:28.783Z,21.20
2022-08-12T21:15:23.354Z,21.30
2022-08-12T21:18:09.297Z,21.40
2022-08-12T21:20:42.081Z,21.50
2022-08-12T21:23:10.017Z,21.50
2022-08-12T21:25:45.599Z,21.60
2022-08-12T21:28:15.561Z,21.70
2022-08-12T21:31:11.262Z,21.80
2022-08-12T21:33:58.359Z,21.90
2022-08-12T21:36:32.090Z,22.00
2022-08-12T21:39:01.381Z,22.40
2022-08-12T21:41:51.022Z,22.40
2022-08-12T21:44:24.324Z,22.40
2022-08-12T21:47:20.530Z,22.50
2022-08-12T21:50:02.284Z,22.60
2022-08-12T21:52:34.990Z,22.70
2022-08-12T21:55:18.861Z,22.90
2022-08-12T21:57:54.025Z,23.00
2022-08-12T22:00:34.234Z,23.10
2022-08-12T22:04:01.365Z,23.10
2022-08-12T22:06:30.427Z,23.30
2022-08-12T22:09:15.976Z,23.30
2022-08-12T22:11:49.278Z,23.40
2022-08-12T22:14:28.909Z,23.50
2022-08-12T22:16:58.099Z,23.60
2022-08-12T22:19:27.434Z,23.70
2022-08-12T22:21:58.784Z,23.90
2022-08-12T22:24:31.944Z,23.90
2022-08-12T22:27:07.946Z,23.90
2022-08-12T22:30:03.695Z,24.00
2022-08-12T22:32:31.630Z,24.10
2022-08-12T22:35:22.279Z,24.10
2022-08-12T22:37:53.446Z,24.20
2022-08-12T22:40:24.075Z,24.30
2022-08-12T22:43:15.399Z,24.50
2022-08-12T22:46:01.481Z,24.60
2022-08-12T22:48:30.677Z,24.80
2022-08-12T22:51:00.231Z,25.00
2022-08-12T22:53:35.892Z,25.20
2022-08-12T22:56:07.935Z,25.40
2022-08-12T22:58:40.489Z,25.60
2022-08-12T23:01:10.905Z,25.60
2022-08-12T23:03:48.115Z,25.80
2022-08-12T23:06:20.168Z,25.90
2022-08-12T23:08:49.817Z,26.00
2022-08-12T23:11:23.724Z,26.10
2022-08-12T23:13:57.093Z,26.20
2022-08-12T23:16:31.802Z,26.20
2022-08-12T23:19:09.872Z,26.30
2022-08-12T23:22:05.322Z,26.50
2022-08-12T23:24:41.069Z,26.60
2022-08-12T23:27:51.159Z,26.70
2022-08-12T23:30:24.796Z,26.80
2022-08-12T23:33:00.613Z,26.90
2022-08-12T23:35:53.752Z,27.10
2022-08-12T23:38:30.509Z,27.20
2022-08-12T23:40:59.679Z,27.40
2022-08-12T23:43:39.207Z,27.60
2022-08-12T23:46:09.232Z,28.00
2022-08-12T23:48:37.580Z,28.00
2022-08-12T23:51:21.616Z,28.00
2022-08-12T23:53:55.278Z,28.10
2022-08-12T23:56:24.634Z,28.40
2022-08-12T23:58:57.606Z,28.60
